Terminal Aerodrome Forecast
Issued by NWS Corpus Christi, TX

Home | Current Version | Previous Version | Text Only | Print | Product List | Glossary On
Versions: 1 2 3 4 5 6 7 8 9 10 11 12 13 14
000
FTUS44 KCRP 222200 AAA
TAFCRP
TAF AMD
KCRP 222202Z 2222/2318 14014G20KT P6SM FEW035 SCT150
     FM230300 VRB05KT P6SM FEW016
      TEMPO 2311/2314 6SM BR SCT015
     FM231400 VRB06KT P6SM SCT030=

USA.gov is the U.S. government's official web portal to all federal, state and local government web resources and services.